createdAt,value
2022-12-08T00:01:22.850Z,92217.53
2022-12-08T00:03:50.247Z,92225.81
2022-12-08T00:06:45.780Z,92222.66
2022-12-08T00:09:27.127Z,92226.97
2022-12-08T00:11:56.288Z,92220.00
2022-12-08T00:14:42.805Z,92218.19
2022-12-08T00:17:10.809Z,92215.03
2022-12-08T00:19:39.152Z,92212.09
2022-12-08T00:22:07.079Z,92202.34
2022-12-08T00:24:35.784Z,92207.66
2022-12-08T00:27:02.715Z,92199.47
2022-12-08T00:29:29.237Z,92199.53
2022-12-08T00:31:55.891Z,92195.38
2022-12-08T00:34:22.478Z,92193.41
2022-12-08T00:36:48.892Z,92194.44
2022-12-08T00:39:17.048Z,92196.25
2022-12-08T00:42:02.100Z,92191.72
2022-12-08T00:44:28.586Z,92190.13
2022-12-08T00:46:55.810Z,92185.34
2022-12-08T00:49:22.925Z,92181.00
2022-12-08T00:51:49.357Z,92182.38
2022-12-08T00:54:16.103Z,92177.25
2022-12-08T00:56:42.529Z,92177.81
2022-12-08T00:59:09.032Z,92174.63
2022-12-08T01:01:36.214Z,92167.09
2022-12-08T01:04:07.901Z,92171.03
2022-12-08T01:06:38.634Z,92163.78
2022-12-08T01:09:07.004Z,92176.59
2022-12-08T01:11:34.637Z,92171.25
2022-12-08T01:14:01.105Z,92167.06
2022-12-08T01:16:30.439Z,92174.41
2022-12-08T01:18:58.234Z,92169.06
2022-12-08T01:21:27.078Z,92167.69
2022-12-08T01:23:54.152Z,92172.41
2022-12-08T01:26:21.056Z,92160.31
2022-12-08T01:28:47.995Z,92155.75
2022-12-08T01:31:19.558Z,92153.56
2022-12-08T01:33:47.059Z,92157.09
2022-12-08T01:36:22.021Z,92158.81
2022-12-08T01:38:48.804Z,92158.63
2022-12-08T01:41:17.780Z,92162.97
2022-12-08T01:44:02.375Z,92157.22
2022-12-08T01:46:31.492Z,92166.88
2022-12-08T01:49:05.223Z,92163.72
2022-12-08T01:51:38.326Z,92161.47
2022-12-08T01:54:06.952Z,92160.31
2022-12-08T01:56:45.556Z,92163.59
2022-12-08T01:59:12.917Z,92163.59
2022-12-08T02:01:39.795Z,92155.31
2022-12-08T02:04:06.705Z,92150.16
2022-12-08T02:06:37.508Z,92150.53
2022-12-08T02:09:05.926Z,92152.13
2022-12-08T02:11:32.373Z,92150.53
2022-12-08T02:14:01.955Z,92153.72
2022-12-08T02:16:45.454Z,92145.41
2022-12-08T02:19:31.233Z,92145.03
2022-12-08T02:22:07.169Z,92137.59
2022-12-08T02:25:02.601Z,92137.97
2022-12-08T02:27:50.862Z,92141.44
2022-12-08T02:30:29.505Z,92132.97
2022-12-08T02:33:17.545Z,92132.97
2022-12-08T02:35:58.616Z,92129.22
2022-12-08T02:39:02.801Z,92124.25
2022-12-08T02:41:50.594Z,92127.63
2022-12-08T02:44:29.908Z,92124.84
2022-12-08T02:47:08.405Z,92120.53
2022-12-08T02:49:35.642Z,92121.16
2022-12-08T02:52:26.624Z,92122.28
2022-12-08T02:55:01.773Z,92121.53
2022-12-08T02:57:43.441Z,92113.44
2022-12-08T03:00:15.442Z,92107.56
2022-12-08T03:03:23.635Z,92106.59
2022-12-08T03:06:05.576Z,92103.25
2022-12-08T03:08:43.443Z,92101.09
2022-12-08T03:11:32.986Z,92101.69
2022-12-08T03:14:02.343Z,92093.44
2022-12-08T03:16:30.406Z,92096.66
2022-12-08T03:19:10.682Z,92093.16
2022-12-08T03:21:38.773Z,92096.72
2022-12-08T03:24:07.671Z,92093.97
2022-12-08T03:26:58.295Z,92090.28
2022-12-08T03:29:24.917Z,92085.34
2022-12-08T03:31:59.011Z,92083.81
2022-12-08T03:34:28.655Z,92083.25
2022-12-08T03:36:55.635Z,92079.13
2022-12-08T03:39:22.157Z,92068.47
2022-12-08T03:41:48.589Z,92064.91
2022-12-08T03:44:15.038Z,92048.31
2022-12-08T03:46:41.460Z,92052.47
2022-12-08T03:49:07.891Z,92058.19
2022-12-08T03:51:34.321Z,92055.25
2022-12-08T03:54:00.735Z,92050.13
2022-12-08T03:56:33.859Z,92052.31
2022-12-08T03:59:00.641Z,92056.44
2022-12-08T04:01:27.442Z,92049.56
2022-12-08T04:03:54.261Z,92051.16
2022-12-08T04:06:22.118Z,92048.81
2022-12-08T04:08:49.925Z,92046.84
2022-12-08T04:11:17.062Z,92044.47
2022-12-08T04:13:44.014Z,92040.97
2022-12-08T04:16:28.750Z,92039.16
2022-12-08T04:18:55.352Z,92032.63
2022-12-08T04:21:22.198Z,92034.06
2022-12-08T04:23:48.684Z,92031.28
2022-12-08T04:26:15.717Z,92026.78
2022-12-08T04:28:42.226Z,92029.72
2022-12-08T04:31:08.817Z,92025.41
2022-12-08T04:33:35.712Z,92030.13
2022-12-08T04:36:03.270Z,92023.22
2022-12-08T04:38:29.846Z,92025.59
2022-12-08T04:40:56.301Z,92025.19
2022-12-08T04:43:22.760Z,92017.09
2022-12-08T04:45:49.172Z,92016.47
2022-12-08T04:48:15.970Z,92011.34
2022-12-08T04:50:44.512Z,92008.56
2022-12-08T04:53:12.084Z,92013.31
2022-12-08T04:55:41.208Z,92008.19
2022-12-08T04:58:07.683Z,92007.38
2022-12-08T05:00:34.125Z,92013.69
2022-12-08T05:03:00.724Z,92008.56
2022-12-08T05:05:27.248Z,92001.44
2022-12-08T05:07:53.780Z,92003.56
2022-12-08T05:10:20.248Z,92001.81
2022-12-08T05:12:46.706Z,92002.97
2022-12-08T05:15:13.126Z,92003.34
2022-12-08T05:17:39.597Z,92005.69
2022-12-08T05:20:07.709Z,91998.00
2022-12-08T05:22:34.099Z,92005.09
2022-12-08T05:25:00.721Z,92002.28
2022-12-08T05:27:27.196Z,92003.66
2022-12-08T05:29:53.722Z,92011.19
2022-12-08T05:32:20.155Z,92005.84
2022-12-08T05:34:46.561Z,92010.59
2022-12-08T05:37:13.065Z,92004.25
2022-12-08T05:39:39.472Z,92003.66
2022-12-08T05:42:06.390Z,91998.75
2022-12-08T05:44:32.899Z,91995.97
2022-12-08T05:46:59.385Z,91994.38
2022-12-08T05:49:26.010Z,91996.78
2022-12-08T05:51:52.845Z,91993.41
2022-12-08T05:54:19.365Z,91993.63
2022-12-08T05:56:45.841Z,91996.97
2022-12-08T05:59:12.332Z,91993.78
2022-12-08T06:01:39.200Z,92000.50
2022-12-08T06:04:05.639Z,92003.06
2022-12-08T06:06:34.383Z,92010.00
2022-12-08T06:09:03.490Z,91999.69
2022-12-08T06:11:31.345Z,92007.53
2022-12-08T06:13:58.960Z,92005.56
2022-12-08T06:16:26.645Z,92007.53
2022-12-08T06:18:53.441Z,92003.97
2022-12-08T06:21:20.387Z,92004.97
2022-12-08T06:23:51.799Z,91996.88
2022-12-08T06:26:19.405Z,92001.63
2022-12-08T06:28:45.948Z,92004.19
2022-12-08T06:31:19.014Z,92006.13
2022-12-08T06:33:45.910Z,92006.28
2022-12-08T06:36:14.437Z,92003.56
2022-12-08T06:38:43.653Z,92007.09
2022-12-08T06:41:11.998Z,91998.81
2022-12-08T06:43:38.864Z,92001.72
2022-12-08T06:46:07.976Z,91996.97
2022-12-08T06:48:34.703Z,92000.75
2022-12-08T06:51:16.184Z,91992.09
2022-12-08T06:53:43.867Z,91986.97
2022-12-08T06:56:11.474Z,91988.16
2022-12-08T06:58:38.299Z,91986.75
2022-12-08T07:01:10.113Z,91986.00
2022-12-08T07:03:38.267Z,91991.69
2022-12-08T07:06:05.535Z,91990.09
2022-12-08T07:08:33.456Z,91995.00
2022-12-08T07:10:59.949Z,91997.19
2022-12-08T07:13:26.411Z,91998.34
2022-12-08T07:15:52.839Z,91997.75
2022-12-08T07:18:19.311Z,92003.84
2022-12-08T07:20:45.797Z,91996.53
2022-12-08T07:23:12.231Z,92004.97
2022-12-08T07:25:38.667Z,92000.09
2022-12-08T07:28:09.564Z,92009.41
2022-12-08T07:30:36.084Z,92002.09
2022-12-08T07:33:04.615Z,91997.41
2022-12-08T07:35:31.105Z,92000.13
2022-12-08T07:37:57.752Z,92005.25
2022-12-08T07:40:24.219Z,92007.09
2022-12-08T07:42:50.661Z,92007.31
2022-12-08T07:45:17.148Z,92004.16
2022-12-08T07:47:43.573Z,92004.72
2022-12-08T07:50:10.093Z,92008.69
2022-12-08T07:52:36.562Z,92005.72
2022-12-08T07:55:03.021Z,91998.03
2022-12-08T07:57:29.460Z,92009.28
2022-12-08T07:59:55.873Z,92006.13
2022-12-08T08:02:24.891Z,92001.59
2022-12-08T08:04:52.205Z,92007.50
2022-12-08T08:07:18.688Z,92010.28
2022-12-08T08:09:45.749Z,92008.72
2022-12-08T08:15:00.537Z,92006.44
2022-12-08T08:17:27.392Z,91998.34
2022-12-08T08:19:53.991Z,92004.91
2022-12-08T08:22:20.507Z,92004.53
2022-12-08T08:24:46.915Z,91999.44
2022-12-08T08:27:13.960Z,91995.50
2022-12-08T08:29:40.376Z,91992.41
2022-12-08T08:32:06.865Z,91988.47
2022-12-08T08:34:33.340Z,91997.16
2022-12-08T08:36:59.840Z,91994.44
2022-12-08T08:39:26.364Z,91992.25
2022-12-08T08:41:53.019Z,91995.63
2022-12-08T08:44:19.470Z,91998.00
2022-12-08T08:46:45.951Z,91996.22
2022-12-08T08:49:12.527Z,91986.91
2022-12-08T08:51:39.032Z,91986.06
2022-12-08T08:54:05.585Z,91990.16
2022-12-08T08:56:32.103Z,91984.41
2022-12-08T08:58:58.614Z,91976.81
2022-12-08T09:01:27.686Z,91981.94
2022-12-08T09:03:55.516Z,91970.81
2022-12-08T09:06:23.444Z,91979.34
2022-12-08T09:08:50.235Z,91976.34
2022-12-08T09:11:18.641Z,91971.69
2022-12-08T09:13:49.356Z,91962.28
2022-12-08T09:16:15.901Z,91960.50
2022-12-08T09:18:42.441Z,91957.50
2022-12-08T09:21:16.529Z,91950.72
2022-12-08T09:23:43.519Z,91954.41
2022-12-08T09:26:10.377Z,91951.81
2022-12-08T09:28:37.095Z,91951.72
2022-12-08T09:31:03.842Z,91954.41
2022-12-08T09:33:30.395Z,91955.03
2022-12-08T09:35:56.941Z,91956.03
2022-12-08T09:38:23.373Z,91957.00
2022-12-08T09:40:52.951Z,91960.50
2022-12-08T09:43:31.448Z,91958.28
2022-12-08T09:45:58.796Z,91953.44
2022-12-08T09:48:33.182Z,91948.63
2022-12-08T09:50:59.608Z,91951.38
2022-12-08T09:53:35.137Z,91949.16
2022-12-08T09:56:19.135Z,91950.59
2022-12-08T09:59:06.267Z,91949.38
2022-12-08T10:01:38.034Z,91939.50
2022-12-08T10:04:14.401Z,91938.63
2022-12-08T10:06:42.515Z,91937.94
2022-12-08T10:09:38.693Z,91941.72
2022-12-08T10:12:11.281Z,91936.56
2022-12-08T10:14:47.369Z,91926.63
2022-12-08T10:17:31.776Z,91927.31
2022-12-08T10:20:02.366Z,91921.22
2022-12-08T10:22:38.687Z,91917.56
2022-12-08T10:25:19.009Z,91918.06
2022-12-08T10:27:49.761Z,91920.72
2022-12-08T10:30:18.559Z,91915.63
2022-12-08T10:32:48.043Z,91908.09
2022-12-08T10:35:17.106Z,91911.69
2022-12-08T10:38:03.907Z,91912.97
2022-12-08T10:40:42.144Z,91907.09
2022-12-08T10:43:17.529Z,91901.88
2022-12-08T10:45:44.893Z,91900.13
2022-12-08T10:48:13.997Z,91893.06
2022-12-08T10:50:43.417Z,91884.66
2022-12-08T10:53:09.871Z,91882.56
2022-12-08T10:55:52.712Z,91880.53
2022-12-08T10:58:29.656Z,91885.53
2022-12-08T11:01:04.992Z,91871.50
2022-12-08T11:03:36.369Z,91868.75
2022-12-08T11:06:15.714Z,91864.97
2022-12-08T11:08:51.599Z,91873.72
2022-12-08T11:11:21.085Z,91869.25
2022-12-08T11:13:51.901Z,91868.31
2022-12-08T11:16:20.099Z,91862.47
2022-12-08T11:18:56.186Z,91859.78
2022-12-08T11:21:34.254Z,91854.97
2022-12-08T11:24:36.025Z,91839.38
2022-12-08T11:27:06.359Z,91843.53
2022-12-08T11:29:35.432Z,91835.47
2022-12-08T11:32:12.692Z,91841.03
2022-12-08T11:34:47.949Z,91839.56
2022-12-08T11:37:24.092Z,91838.44
2022-12-08T11:39:55.183Z,91840.59
2022-12-08T11:42:28.969Z,91834.94
2022-12-08T11:45:07.387Z,91841.34
2022-12-08T11:47:42.699Z,91832.72
2022-12-08T11:50:30.111Z,91826.66
2022-12-08T11:52:58.429Z,91824.06
2022-12-08T11:55:37.321Z,91816.44
2022-12-08T11:58:37.158Z,91816.78
2022-12-08T12:01:04.048Z,91808.03
2022-12-08T12:03:47.964Z,91810.84
2022-12-08T12:06:53.752Z,91806.94
2022-12-08T12:09:49.394Z,91811.09
2022-12-08T12:12:40.626Z,91802.44
2022-12-08T12:15:32.770Z,91793.69
2022-12-08T12:18:22.775Z,91794.91
2022-12-08T12:21:06.547Z,91798.41
2022-12-08T12:23:44.588Z,91793.91
2022-12-08T12:26:20.046Z,91803.03
2022-12-08T12:29:00.638Z,91793.25
2022-12-08T12:31:41.510Z,91790.66
2022-12-08T12:34:16.739Z,91790.66
2022-12-08T12:36:49.312Z,91782.22
2022-12-08T12:39:20.553Z,91782.66
2022-12-08T12:41:51.764Z,91783.47
2022-12-08T12:44:18.240Z,91780.63
2022-12-08T12:46:50.704Z,91783.38
2022-12-08T12:49:36.073Z,91773.69
2022-12-08T12:52:02.723Z,91777.28
2022-12-08T12:54:29.569Z,91785.25
2022-12-08T12:57:16.175Z,91786.50
2022-12-08T12:59:55.794Z,91781.91
2022-12-08T13:02:26.443Z,91785.50
2022-12-08T13:05:08.776Z,91779.84
2022-12-08T13:07:51.636Z,91777.22
2022-12-08T13:10:22.820Z,91781.97
2022-12-08T13:13:09.626Z,91781.41
2022-12-08T13:15:40.119Z,91782.09
2022-12-08T13:18:16.710Z,91782.06
2022-12-08T13:20:48.203Z,91779.69
2022-12-08T13:23:37.983Z,91773.22
2022-12-08T13:26:23.616Z,91775.34
2022-12-08T13:29:01.178Z,91781.09
2022-12-08T13:31:51.389Z,91771.22
2022-12-08T13:34:36.655Z,91771.09
2022-12-08T13:37:12.401Z,91766.94
2022-12-08T13:39:38.751Z,91760.53
2022-12-08T13:42:27.350Z,91767.63
2022-12-08T13:45:20.162Z,91765.38
2022-12-08T13:48:20.571Z,91760.31
2022-12-08T13:50:57.598Z,91765.94
2022-12-08T13:57:00.020Z,91767.75
2022-12-08T13:59:18.443Z,91765.72
2022-12-08T14:01:47.336Z,91771.91
2022-12-08T14:07:04.153Z,91767.63
2022-12-08T14:09:36.776Z,91763.91
2022-12-08T14:12:17.704Z,91765.47
2022-12-08T14:15:03.050Z,91769.75
2022-12-08T14:17:30.719Z,91771.31
2022-12-08T14:20:12.335Z,91775.25
2022-12-08T14:22:40.951Z,91773.66
2022-12-08T14:25:14.917Z,91777.44
2022-12-08T14:27:41.557Z,91762.06
2022-12-08T14:30:19.276Z,91761.16
2022-12-08T14:32:58.325Z,91767.91
2022-12-08T14:35:36.797Z,91762.53
2022-12-08T14:38:13.627Z,91759.69
2022-12-08T14:40:42.532Z,91752.66
2022-12-08T14:43:08.985Z,91750.63
2022-12-08T14:45:41.455Z,91750.41
2022-12-08T14:48:39.022Z,91755.13
2022-12-08T14:51:20.845Z,91759.50
2022-12-08T14:54:08.236Z,91760.06
2022-12-08T14:56:39.541Z,91761.31
2022-12-08T14:59:32.390Z,91756.16
2022-12-08T15:02:24.144Z,91752.19
2022-12-08T15:04:58.437Z,91756.56
2022-12-08T15:07:28.698Z,91757.91
2022-12-08T15:10:15.118Z,91765.88
2022-12-08T15:12:57.559Z,91767.91
2022-12-08T15:15:24.296Z,91772.63
2022-12-08T15:17:58.519Z,91775.63
2022-12-08T15:20:27.594Z,91768.91
2022-12-08T15:22:58.416Z,91764.31
2022-12-08T15:25:25.469Z,91769.47
2022-12-08T15:27:56.496Z,91761.50
2022-12-08T15:30:23.359Z,91760.28
2022-12-08T15:32:52.217Z,91769.06
2022-12-08T15:35:18.731Z,91764.88
2022-12-08T15:37:46.307Z,91760.16
2022-12-08T15:40:19.474Z,91759.81
2022-12-08T15:42:45.964Z,91755.22
2022-12-08T15:45:16.615Z,91749.81
2022-12-08T15:47:45.000Z,91746.22
2022-12-08T15:50:17.655Z,91747.25
2022-12-08T15:52:44.672Z,91746.13
2022-12-08T15:55:16.084Z,91748.13
2022-12-08T16:00:56.613Z,91733.09
2022-12-08T16:04:08.905Z,91730.41
2022-12-08T16:09:20.610Z,91731.97
2022-12-08T16:12:09.094Z,91731.25
2022-12-08T16:17:23.667Z,91729.69
2022-12-08T16:19:50.085Z,91731.72
2022-12-08T16:25:18.178Z,91728.56
2022-12-08T16:30:33.349Z,91723.41
2022-12-08T16:32:59.781Z,91722.03
2022-12-08T16:35:26.220Z,91723.28
2022-12-08T16:37:52.834Z,91717.88
2022-12-08T16:40:19.339Z,91723.84
2022-12-08T16:42:47.687Z,91721.13
2022-12-08T16:45:21.114Z,91717.56
2022-12-08T16:47:50.721Z,91704.88
2022-12-08T16:50:20.685Z,91706.88
2022-12-08T16:52:48.803Z,91709.69
2022-12-08T16:55:17.709Z,91703.75
2022-12-08T16:57:45.358Z,91700.59
2022-12-08T17:00:15.974Z,91700.25
2022-12-08T17:02:42.705Z,91701.00
2022-12-08T17:05:13.578Z,91704.28
2022-12-08T17:07:41.140Z,91702.78
2022-12-08T17:10:09.978Z,91710.75
2022-12-08T17:12:36.798Z,91704.47
2022-12-08T17:15:08.587Z,91709.63
2022-12-08T17:17:35.553Z,91708.25
2022-12-08T17:20:05.282Z,91713.09
2022-12-08T17:22:33.212Z,91712.94
2022-12-08T17:25:00.584Z,91707.66
2022-12-08T17:27:27.701Z,91703.94
2022-12-08T17:29:54.235Z,91706.38
2022-12-08T17:32:20.875Z,91708.81
2022-12-08T17:34:47.665Z,91709.25
2022-12-08T17:37:14.369Z,91710.56
2022-12-08T17:39:40.804Z,91711.09
2022-12-08T17:42:07.350Z,91711.16
2022-12-08T17:44:35.140Z,91716.19
2022-12-08T17:47:03.558Z,91723.31
2022-12-08T17:49:30.835Z,91726.75
2022-12-08T17:52:00.905Z,91730.41
2022-12-08T17:54:28.543Z,91728.31
2022-12-08T17:56:57.878Z,91721.44
2022-12-08T17:59:24.965Z,91725.03
2022-12-08T18:01:56.333Z,91717.16
2022-12-08T18:04:23.214Z,91720.72
2022-12-08T18:06:49.672Z,91720.13
2022-12-08T18:09:16.184Z,91713.06
2022-12-08T18:11:43.993Z,91718.63
2022-12-08T18:14:11.221Z,91717.28
2022-12-08T18:16:40.143Z,91704.03
2022-12-08T18:19:07.328Z,91713.00
2022-12-08T18:21:33.787Z,91715.38
2022-12-08T18:24:01.001Z,91718.81
2022-12-08T18:26:28.519Z,91715.53
2022-12-08T18:28:54.961Z,91719.06
2022-12-08T18:31:22.624Z,91725.06
2022-12-08T18:33:50.059Z,91724.69
2022-12-08T18:36:22.176Z,91723.97
2022-12-08T18:38:49.032Z,91710.56
2022-12-08T18:41:19.861Z,91707.03
2022-12-08T18:43:46.604Z,91710.84
2022-12-08T18:46:14.532Z,91711.03
2022-12-08T18:48:44.366Z,91701.22
2022-12-08T18:51:21.761Z,91701.06
2022-12-08T18:53:49.181Z,91700.06
2022-12-08T18:56:25.396Z,91688.63
2022-12-08T18:58:51.879Z,91693.00
2022-12-08T19:01:18.553Z,91694.22
2022-12-08T19:04:04.636Z,91688.13
2022-12-08T19:06:31.933Z,91683.78
2022-12-08T19:08:58.367Z,91684.03
2022-12-08T19:11:27.201Z,91682.09
2022-12-08T19:13:54.665Z,91686.06
2022-12-08T19:16:22.126Z,91673.06
2022-12-08T19:18:48.845Z,91679.22
2022-12-08T19:21:15.375Z,91687.69
2022-12-08T19:23:42.024Z,91687.13
2022-12-08T19:26:10.511Z,91682.41
2022-12-08T19:28:37.160Z,91675.94
2022-12-08T19:31:07.878Z,91677.13
2022-12-08T19:33:34.442Z,91666.47
2022-12-08T19:36:07.019Z,91660.19
2022-12-08T19:38:53.892Z,91666.34
2022-12-08T19:41:38.626Z,91666.56
2022-12-08T19:44:23.685Z,91662.59
2022-12-08T19:46:50.183Z,91664.00
2022-12-08T19:49:16.672Z,91658.47
2022-12-08T19:51:43.103Z,91670.75
2022-12-08T19:54:09.701Z,91665.25
2022-12-08T19:56:36.151Z,91666.03
2022-12-08T19:59:02.614Z,91662.88
2022-12-08T20:01:29.159Z,91661.31
2022-12-08T20:03:55.639Z,91662.72
2022-12-08T20:06:23.323Z,91662.72
2022-12-08T20:08:50.896Z,91659.34
2022-12-08T20:11:17.510Z,91659.97
2022-12-08T20:13:45.711Z,91659.16
2022-12-08T20:16:13.485Z,91656.00
2022-12-08T20:18:42.107Z,91658.00
2022-12-08T20:21:09.852Z,91652.88
2022-12-08T20:23:36.999Z,91646.97
2022-12-08T20:26:05.170Z,91652.28
2022-12-08T20:28:31.847Z,91657.63
2022-12-08T20:30:58.416Z,91650.91
2022-12-08T20:33:24.966Z,91652.53
2022-12-08T20:36:00.249Z,91651.53
2022-12-08T20:38:28.053Z,91641.28
2022-12-08T20:40:55.127Z,91637.91
2022-12-08T20:43:21.605Z,91643.84
2022-12-08T20:45:48.069Z,91647.81
2022-12-08T20:48:14.631Z,91648.56
2022-12-08T20:50:41.235Z,91643.25
2022-12-08T20:53:08.427Z,91649.38
2022-12-08T20:55:37.685Z,91653.31
2022-12-08T20:58:04.163Z,91648.19
2022-12-08T21:00:30.755Z,91647.41
2022-12-08T21:02:57.537Z,91649.75
2022-12-08T21:05:24.354Z,91654.88
2022-12-08T21:07:50.958Z,91659.59
2022-12-08T21:10:17.689Z,91660.41
2022-12-08T21:12:44.321Z,91660.81
2022-12-08T21:15:12.403Z,91659.81
2022-12-08T21:17:39.200Z,91672.22
2022-12-08T21:20:07.005Z,91663.34
2022-12-08T21:22:33.806Z,91657.25
2022-12-08T21:25:00.343Z,91651.53
2022-12-08T21:27:26.913Z,91653.91
2022-12-08T21:29:53.539Z,91648.41
2022-12-08T21:32:21.598Z,91650.72
2022-12-08T21:34:51.215Z,91647.78
2022-12-08T21:37:18.074Z,91647.41
2022-12-08T21:39:44.525Z,91645.41
2022-12-08T21:42:34.115Z,91639.31
2022-12-08T21:45:01.353Z,91648.56
2022-12-08T21:47:27.997Z,91646.41
2022-12-08T21:49:54.508Z,91652.53
2022-12-08T21:52:21.150Z,91653.91
2022-12-08T21:54:47.703Z,91651.53
2022-12-08T21:57:14.359Z,91645.59
2022-12-08T21:59:40.897Z,91643.66
2022-12-08T22:02:10.565Z,91641.69
2022-12-08T22:04:37.233Z,91636.34
2022-12-08T22:07:03.938Z,91628.09
2022-12-08T22:09:30.959Z,91627.50
2022-12-08T22:11:57.593Z,91626.50
2022-12-08T22:14:24.067Z,91625.34
2022-12-08T22:16:50.744Z,91631.22
2022-12-08T22:19:17.372Z,91635.19
2022-12-08T22:21:44.051Z,91634.78
2022-12-08T22:24:10.687Z,91623.38
2022-12-08T22:26:37.464Z,91617.84
2022-12-08T22:29:04.110Z,91614.47
2022-12-08T22:31:30.873Z,91614.47
2022-12-08T22:33:59.099Z,91610.75
2022-12-08T22:36:27.467Z,91608.94
2022-12-08T22:38:54.292Z,91602.25
2022-12-08T22:41:21.475Z,91602.06
2022-12-08T22:43:48.768Z,91596.13
2022-12-08T22:46:26.674Z,91599.09
2022-12-08T22:48:54.551Z,91596.13
2022-12-08T22:51:21.941Z,91601.66
2022-12-08T22:53:48.665Z,91598.09
2022-12-08T22:56:16.208Z,91593.97
2022-12-08T22:58:44.090Z,91585.69
2022-12-08T23:01:25.000Z,91588.03
2022-12-08T23:03:52.082Z,91579.94
2022-12-08T23:06:18.732Z,91568.09
2022-12-08T23:08:45.444Z,91568.50
2022-12-08T23:11:12.507Z,91590.59
2022-12-08T23:13:39.838Z,91591.34
2022-12-08T23:16:08.433Z,91591.75
2022-12-08T23:18:39.814Z,91586.22
2022-12-08T23:21:09.154Z,91580.72
2022-12-08T23:23:36.141Z,91575.97
2022-12-08T23:26:02.679Z,91560.78
2022-12-08T23:28:29.303Z,91552.09
2022-12-08T23:30:55.826Z,91546.53
2022-12-08T23:33:22.562Z,91551.44
2022-12-08T23:35:58.246Z,91555.41
2022-12-08T23:38:25.655Z,91554.56
2022-12-08T23:40:52.415Z,91551.81
2022-12-08T23:43:19.639Z,91548.25
2022-12-08T23:45:47.669Z,91552.41
2022-12-08T23:48:14.267Z,91547.44
2022-12-08T23:50:40.957Z,91533.59
2022-12-08T23:53:07.517Z,91537.59
2022-12-08T23:55:33.947Z,91535.03
2022-12-08T23:58:00.508Z,91520.63
